sensor_id;sensor_type;location;lat;lon;timestamp;temperature;humidity
20590;DHT22;10453;50.810;12.540;2023-08-21T00:03:56;20.40;99.90
20590;DHT22;10453;50.810;12.540;2023-08-21T00:08:13;20.30;99.90
20590;DHT22;10453;50.810;12.540;2023-08-21T00:12:31;20.30;99.90
20590;DHT22;10453;50.810;12.540;2023-08-21T00:16:48;20.20;99.90
20590;DHT22;10453;50.810;12.540;2023-08-21T00:21:05;20.20;99.90
20590;DHT22;10453;50.810;12.540;2023-08-21T00:25:22;20.20;99.90
20590;DHT22;10453;50.810;12.540;2023-08-21T00:29:40;20.20;99.90
20590;DHT22;10453;50.810;12.540;2023-08-21T00:33:57;20.10;99.90
20590;DHT22;10453;50.810;12.540;2023-08-21T00:38:14;20.10;99.90
20590;DHT22;10453;50.810;12.540;2023-08-21T00:42:31;20.10;99.90
20590;DHT22;10453;50.810;12.540;2023-08-21T00:46:48;20.10;99.90
20590;DHT22;10453;50.810;12.540;2023-08-21T00:51:06;20.10;99.90
20590;DHT22;10453;50.810;12.540;2023-08-21T00:55:24;20.00;99.90
20590;DHT22;10453;50.810;12.540;2023-08-21T00:59:41;20.00;99.90
20590;DHT22;10453;50.810;12.540;2023-08-21T01:03:58;20.00;99.90
20590;DHT22;10453;50.810;12.540;2023-08-21T01:13:00;19.90;99.90
20590;DHT22;10453;50.810;12.540;2023-08-21T01:17:20;19.90;99.90
20590;DHT22;10453;50.810;12.540;2023-08-21T01:21:39;19.90;99.90
20590;DHT22;10453;50.810;12.540;2023-08-21T01:25:56;19.90;99.90
20590;DHT22;10453;50.810;12.540;2023-08-21T01:30:14;19.90;99.90
20590;DHT22;10453;50.810;12.540;2023-08-21T01:34:32;19.80;99.90
20590;DHT22;10453;50.810;12.540;2023-08-21T01:38:50;19.80;99.90
20590;DHT22;10453;50.810;12.540;2023-08-21T01:43:08;19.80;99.90
20590;DHT22;10453;50.810;12.540;2023-08-21T01:47:25;19.80;99.90
20590;DHT22;10453;50.810;12.540;2023-08-21T01:51:42;19.70;99.90
20590;DHT22;10453;50.810;12.540;2023-08-21T01:55:59;19.50;99.90
20590;DHT22;10453;50.810;12.540;2023-08-21T02:00:17;19.60;99.90
20590;DHT22;10453;50.810;12.540;2023-08-21T02:04:34;19.60;99.90
20590;DHT22;10453;50.810;12.540;2023-08-21T02:08:51;19.70;99.90
20590;DHT22;10453;50.810;12.540;2023-08-21T02:13:09;19.60;99.90
20590;DHT22;10453;50.810;12.540;2023-08-21T02:17:26;19.50;99.90
20590;DHT22;10453;50.810;12.540;2023-08-21T02:21:44;19.50;99.90
20590;DHT22;10453;50.810;12.540;2023-08-21T02:26:01;19.40;99.90
20590;DHT22;10453;50.810;12.540;2023-08-21T02:30:18;19.40;99.90
20590;DHT22;10453;50.810;12.540;2023-08-21T02:34:35;19.40;99.90
20590;DHT22;10453;50.810;12.540;2023-08-21T02:38:53;19.30;99.90
20590;DHT22;10453;50.810;12.540;2023-08-21T02:43:10;19.40;99.90
20590;DHT22;10453;50.810;12.540;2023-08-21T02:47:27;19.30;99.90
20590;DHT22;10453;50.810;12.540;2023-08-21T02:51:44;19.40;99.90
20590;DHT22;10453;50.810;12.540;2023-08-21T02:56:02;19.40;99.90
20590;DHT22;10453;50.810;12.540;2023-08-21T03:00:19;19.30;99.90
20590;DHT22;10453;50.810;12.540;2023-08-21T03:04:36;19.30;99.90
20590;DHT22;10453;50.810;12.540;2023-08-21T03:08:54;19.30;99.90
20590;DHT22;10453;50.810;12.540;2023-08-21T03:13:11;19.10;99.90
20590;DHT22;10453;50.810;12.540;2023-08-21T03:17:28;19.20;99.90
20590;DHT22;10453;50.810;12.540;2023-08-21T03:21:46;19.10;99.90
20590;DHT22;10453;50.810;12.540;2023-08-21T03:26:03;19.10;99.90
20590;DHT22;10453;50.810;12.540;2023-08-21T03:30:20;19.00;99.90
20590;DHT22;10453;50.810;12.540;2023-08-21T03:34:38;19.00;99.90
20590;DHT22;10453;50.810;12.540;2023-08-21T03:38:56;18.90;99.90
20590;DHT22;10453;50.810;12.540;2023-08-21T03:43:13;18.90;99.90
20590;DHT22;10453;50.810;12.540;2023-08-21T03:47:30;18.90;99.90
20590;DHT22;10453;50.810;12.540;2023-08-21T03:51:48;18.90;99.90
20590;DHT22;10453;50.810;12.540;2023-08-21T03:56:05;18.80;99.90
20590;DHT22;10453;50.810;12.540;2023-08-21T04:00:22;18.80;99.90
20590;DHT22;10453;50.810;12.540;2023-08-21T04:04:39;18.80;99.90
20590;DHT22;10453;50.810;12.540;2023-08-21T04:08:56;18.80;99.90
20590;DHT22;10453;50.810;12.540;2023-08-21T04:13:14;18.80;99.90
20590;DHT22;10453;50.810;12.540;2023-08-21T04:17:31;18.80;99.90
20590;DHT22;10453;50.810;12.540;2023-08-21T04:21:48;18.70;99.90
20590;DHT22;10453;50.810;12.540;2023-08-21T04:26:05;18.70;99.90
20590;DHT22;10453;50.810;12.540;2023-08-21T04:30:24;18.70;99.90
20590;DHT22;10453;50.810;12.540;2023-08-21T04:34:42;18.70;99.90
20590;DHT22;10453;50.810;12.540;2023-08-21T04:38:59;18.80;99.90
20590;DHT22;10453;50.810;12.540;2023-08-21T04:43:17;18.80;99.90
20590;DHT22;10453;50.810;12.540;2023-08-21T04:47:34;18.80;99.90
20590;DHT22;10453;50.810;12.540;2023-08-21T04:51:51;18.80;99.90
20590;DHT22;10453;50.810;12.540;2023-08-21T04:56:08;18.80;99.90
20590;DHT22;10453;50.810;12.540;2023-08-21T05:00:26;18.90;99.90
20590;DHT22;10453;50.810;12.540;2023-08-21T05:04:43;19.00;99.90
20590;DHT22;10453;50.810;12.540;2023-08-21T05:09:00;19.00;99.90
20590;DHT22;10453;50.810;12.540;2023-08-21T05:13:18;19.10;99.90
20590;DHT22;10453;50.810;12.540;2023-08-21T05:17:35;19.20;99.90
20590;DHT22;10453;50.810;12.540;2023-08-21T05:21:52;19.40;99.90
20590;DHT22;10453;50.810;12.540;2023-08-21T05:26:10;19.70;99.90
20590;DHT22;10453;50.810;12.540;2023-08-21T05:30:27;20.00;99.90
20590;DHT22;10453;50.810;12.540;2023-08-21T05:34:44;20.10;99.90
20590;DHT22;10453;50.810;12.540;2023-08-21T05:39:02;20.20;99.90
20590;DHT22;10453;50.810;12.540;2023-08-21T05:43:22;20.20;99.90
20590;DHT22;10453;50.810;12.540;2023-08-21T05:47:40;20.30;99.90
20590;DHT22;10453;50.810;12.540;2023-08-21T05:51:58;20.40;99.90
20590;DHT22;10453;50.810;12.540;2023-08-21T05:56:15;20.50;99.90
20590;DHT22;10453;50.810;12.540;2023-08-21T06:00:33;20.60;99.90
20590;DHT22;10453;50.810;12.540;2023-08-21T06:04:51;20.60;99.90
20590;DHT22;10453;50.810;12.540;2023-08-21T06:09:09;20.60;99.90
20590;DHT22;10453;50.810;12.540;2023-08-21T06:13:26;20.70;99.90
20590;DHT22;10453;50.810;12.540;2023-08-21T06:17:44;20.80;99.90
20590;DHT22;10453;50.810;12.540;2023-08-21T06:22:01;20.80;99.90
20590;DHT22;10453;50.810;12.540;2023-08-21T06:26:18;20.90;99.90
20590;DHT22;10453;50.810;12.540;2023-08-21T06:30:35;21.00;99.90
20590;DHT22;10453;50.810;12.540;2023-08-21T06:34:53;21.10;99.90
20590;DHT22;10453;50.810;12.540;2023-08-21T06:39:10;21.30;99.90
20590;DHT22;10453;50.810;12.540;2023-08-21T06:43:27;21.40;99.90
20590;DHT22;10453;50.810;12.540;2023-08-21T06:47:44;21.50;99.90
20590;DHT22;10453;50.810;12.540;2023-08-21T06:52:02;21.70;99.90
20590;DHT22;10453;50.810;12.540;2023-08-21T06:56:20;21.70;99.90
20590;DHT22;10453;50.810;12.540;2023-08-21T07:00:37;21.80;99.90
20590;DHT22;10453;50.810;12.540;2023-08-21T07:04:55;21.90;99.90
20590;DHT22;10453;50.810;12.540;2023-08-21T07:09:12;22.10;99.90
20590;DHT22;10453;50.810;12.540;2023-08-21T07:13:29;22.20;99.90
20590;DHT22;10453;50.810;12.540;2023-08-21T07:17:47;22.20;99.90
20590;DHT22;10453;50.810;12.540;2023-08-21T07:22:04;22.20;99.90
20590;DHT22;10453;50.810;12.540;2023-08-21T07:26:21;22.30;99.90
20590;DHT22;10453;50.810;12.540;2023-08-21T07:30:39;22.40;99.90
20590;DHT22;10453;50.810;12.540;2023-08-21T07:34:56;22.60;99.90
20590;DHT22;10453;50.810;12.540;2023-08-21T07:39:13;22.70;99.90
20590;DHT22;10453;50.810;12.540;2023-08-21T07:43:31;22.80;99.90
20590;DHT22;10453;50.810;12.540;2023-08-21T07:47:49;23.00;99.90
20590;DHT22;10453;50.810;12.540;2023-08-21T07:52:25;23.20;99.90
20590;DHT22;10453;50.810;12.540;2023-08-21T07:56:42;23.40;99.90
20590;DHT22;10453;50.810;12.540;2023-08-21T08:00:59;23.60;99.90
20590;DHT22;10453;50.810;12.540;2023-08-21T08:05:18;23.80;99.90
20590;DHT22;10453;50.810;12.540;2023-08-21T08:09:35;24.10;99.90
20590;DHT22;10453;50.810;12.540;2023-08-21T08:13:53;24.30;99.90
20590;DHT22;10453;50.810;12.540;2023-08-21T08:18:13;24.70;99.90
20590;DHT22;10453;50.810;12.540;2023-08-21T08:22:30;25.10;99.90
20590;DHT22;10453;50.810;12.540;2023-08-21T08:26:51;25.60;99.90
20590;DHT22;10453;50.810;12.540;2023-08-21T08:31:15;26.50;99.90
20590;DHT22;10453;50.810;12.540;2023-08-21T08:35:33;27.10;99.90
20590;DHT22;10453;50.810;12.540;2023-08-21T08:39:50;27.50;99.90
20590;DHT22;10453;50.810;12.540;2023-08-21T08:44:08;28.00;99.90
20590;DHT22;10453;50.810;12.540;2023-08-21T08:48:26;28.20;99.90
20590;DHT22;10453;50.810;12.540;2023-08-21T08:52:44;28.00;99.90
20590;DHT22;10453;50.810;12.540;2023-08-21T08:57:02;28.60;99.90
20590;DHT22;10453;50.810;12.540;2023-08-21T09:01:19;28.90;99.90
20590;DHT22;10453;50.810;12.540;2023-08-21T09:05:37;29.20;99.90
20590;DHT22;10453;50.810;12.540;2023-08-21T09:09:54;29.90;99.90
20590;DHT22;10453;50.810;12.540;2023-08-21T09:14:11;29.60;99.90
20590;DHT22;10453;50.810;12.540;2023-08-21T09:18:29;30.10;99.90
20590;DHT22;10453;50.810;12.540;2023-08-21T09:22:53;30.90;99.90
20590;DHT22;10453;50.810;12.540;2023-08-21T09:27:17;31.50;99.90
20590;DHT22;10453;50.810;12.540;2023-08-21T09:31:36;32.20;99.90
20590;DHT22;10453;50.810;12.540;2023-08-21T09:35:56;31.30;99.90
20590;DHT22;10453;50.810;12.540;2023-08-21T09:40:15;31.60;99.90
20590;DHT22;10453;50.810;12.540;2023-08-21T09:44:39;32.80;99.90
20590;DHT22;10453;50.810;12.540;2023-08-21T09:48:58;32.10;99.90
20590;DHT22;10453;50.810;12.540;2023-08-21T09:53:16;31.70;99.90
20590;DHT22;10453;50.810;12.540;2023-08-21T09:57:33;33.00;99.90
20590;DHT22;10453;50.810;12.540;2023-08-21T10:01:52;33.40;99.90
20590;DHT22;10453;50.810;12.540;2023-08-21T10:06:10;32.80;99.90
20590;DHT22;10453;50.810;12.540;2023-08-21T10:10:34;32.80;99.90
20590;DHT22;10453;50.810;12.540;2023-08-21T10:14:51;33.20;99.90
20590;DHT22;10453;50.810;12.540;2023-08-21T10:19:14;32.50;99.90
20590;DHT22;10453;50.810;12.540;2023-08-21T10:23:31;33.60;99.90
20590;DHT22;10453;50.810;12.540;2023-08-21T10:27:53;33.50;99.90
20590;DHT22;10453;50.810;12.540;2023-08-21T10:32:11;34.60;99.90
20590;DHT22;10453;50.810;12.540;2023-08-21T10:41:05;34.60;99.90
20590;DHT22;10453;50.810;12.540;2023-08-21T10:45:23;34.50;99.90
20590;DHT22;10453;50.810;12.540;2023-08-21T10:49:41;35.10;99.90
20590;DHT22;10453;50.810;12.540;2023-08-21T10:54:10;35.10;99.90
20590;DHT22;10453;50.810;12.540;2023-08-21T10:58:28;35.40;99.90
20590;DHT22;10453;50.810;12.540;2023-08-21T11:02:46;34.90;99.90
20590;DHT22;10453;50.810;12.540;2023-08-21T11:07:04;35.80;99.90
20590;DHT22;10453;50.810;12.540;2023-08-21T11:11:21;36.40;98.50
20590;DHT22;10453;50.810;12.540;2023-08-21T11:15:38;32.20;99.90
20590;DHT22;10453;50.810;12.540;2023-08-21T11:19:56;33.50;99.90
20590;DHT22;10453;50.810;12.540;2023-08-21T11:24:17;35.10;99.90
20590;DHT22;10453;50.810;12.540;2023-08-21T11:28:34;35.50;99.90
20590;DHT22;10453;50.810;12.540;2023-08-21T11:33:08;35.80;99.90
20590;DHT22;10453;50.810;12.540;2023-08-21T11:37:26;35.10;99.90
20590;DHT22;10453;50.810;12.540;2023-08-21T11:41:56;35.50;99.90
20590;DHT22;10453;50.810;12.540;2023-08-21T11:46:14;34.80;99.90
20590;DHT22;10453;50.810;12.540;2023-08-21T11:50:31;35.50;99.90
20590;DHT22;10453;50.810;12.540;2023-08-21T11:54:50;36.00;99.70
20590;DHT22;10453;50.810;12.540;2023-08-21T11:59:07;35.80;95.50
20590;DHT22;10453;50.810;12.540;2023-08-21T12:03:25;36.30;93.40
20590;DHT22;10453;50.810;12.540;2023-08-21T12:07:42;36.30;99.40
20590;DHT22;10453;50.810;12.540;2023-08-21T12:11:59;37.20;91.80
20590;DHT22;10453;50.810;12.540;2023-08-21T12:16:17;36.40;93.00
20590;DHT22;10453;50.810;12.540;2023-08-21T12:20:34;35.80;95.30
20590;DHT22;10453;50.810;12.540;2023-08-21T12:24:51;35.30;95.00
20590;DHT22;10453;50.810;12.540;2023-08-21T12:29:09;34.70;94.80
20590;DHT22;10453;50.810;12.540;2023-08-21T12:33:26;35.20;97.60
20590;DHT22;10453;50.810;12.540;2023-08-21T12:37:43;35.40;96.90
20590;DHT22;10453;50.810;12.540;2023-08-21T12:42:02;36.30;91.10
20590;DHT22;10453;50.810;12.540;2023-08-21T12:46:19;33.60;95.00
20590;DHT22;10453;50.810;12.540;2023-08-21T12:50:37;31.60;98.20
20590;DHT22;10453;50.810;12.540;2023-08-21T12:54:54;33.10;99.90
20590;DHT22;10453;50.810;12.540;2023-08-21T12:59:12;32.40;99.90
20590;DHT22;10453;50.810;12.540;2023-08-21T13:03:29;34.60;99.90
20590;DHT22;10453;50.810;12.540;2023-08-21T13:07:47;35.60;98.30
20590;DHT22;10453;50.810;12.540;2023-08-21T13:12:04;34.60;99.00
20590;DHT22;10453;50.810;12.540;2023-08-21T13:16:21;34.20;99.90
20590;DHT22;10453;50.810;12.540;2023-08-21T13:20:39;34.30;99.50
20590;DHT22;10453;50.810;12.540;2023-08-21T13:24:56;32.40;99.90
20590;DHT22;10453;50.810;12.540;2023-08-21T13:29:13;31.50;99.90
20590;DHT22;10453;50.810;12.540;2023-08-21T13:33:30;33.20;99.90
20590;DHT22;10453;50.810;12.540;2023-08-21T13:37:48;33.30;99.90
20590;DHT22;10453;50.810;12.540;2023-08-21T13:42:05;34.20;98.80
20590;DHT22;10453;50.810;12.540;2023-08-21T13:46:23;33.60;98.60
20590;DHT22;10453;50.810;12.540;2023-08-21T13:50:40;32.40;99.90
20590;DHT22;10453;50.810;12.540;2023-08-21T13:54:58;33.10;99.80
20590;DHT22;10453;50.810;12.540;2023-08-21T13:59:16;34.10;99.00
20590;DHT22;10453;50.810;12.540;2023-08-21T14:03:34;31.90;98.30
20590;DHT22;10453;50.810;12.540;2023-08-21T14:07:51;33.10;99.90
20590;DHT22;10453;50.810;12.540;2023-08-21T14:12:08;31.70;99.90
20590;DHT22;10453;50.810;12.540;2023-08-21T14:16:25;31.20;99.90
20590;DHT22;10453;50.810;12.540;2023-08-21T14:20:43;30.80;99.90
20590;DHT22;10453;50.810;12.540;2023-08-21T14:25:00;30.30;99.90
20590;DHT22;10453;50.810;12.540;2023-08-21T14:29:17;30.00;99.90
20590;DHT22;10453;50.810;12.540;2023-08-21T14:33:35;30.90;99.90
20590;DHT22;10453;50.810;12.540;2023-08-21T14:37:52;30.90;99.90
20590;DHT22;10453;50.810;12.540;2023-08-21T14:42:09;30.50;99.90
20590;DHT22;10453;50.810;12.540;2023-08-21T14:46:27;30.10;99.90
20590;DHT22;10453;50.810;12.540;2023-08-21T14:50:58;30.10;99.90
20590;DHT22;10453;50.810;12.540;2023-08-21T14:55:16;31.30;99.90
20590;DHT22;10453;50.810;12.540;2023-08-21T14:59:34;30.90;99.90
20590;DHT22;10453;50.810;12.540;2023-08-21T15:03:51;30.40;99.90
20590;DHT22;10453;50.810;12.540;2023-08-21T15:08:08;30.10;99.90
20590;DHT22;10453;50.810;12.540;2023-08-21T15:12:25;32.70;99.90
20590;DHT22;10453;50.810;12.540;2023-08-21T15:16:43;34.20;92.50
20590;DHT22;10453;50.810;12.540;2023-08-21T15:21:00;33.00;92.10
20590;DHT22;10453;50.810;12.540;2023-08-21T15:25:17;33.00;99.90
20590;DHT22;10453;50.810;12.540;2023-08-21T15:29:35;34.20;97.40
20590;DHT22;10453;50.810;12.540;2023-08-21T15:33:52;34.00;95.10
20590;DHT22;10453;50.810;12.540;2023-08-21T15:38:09;33.40;96.20
20590;DHT22;10453;50.810;12.540;2023-08-21T15:42:26;32.00;94.50
20590;DHT22;10453;50.810;12.540;2023-08-21T15:46:43;30.50;97.30
20590;DHT22;10453;50.810;12.540;2023-08-21T15:51:01;29.90;99.90
20590;DHT22;10453;50.810;12.540;2023-08-21T15:55:20;30.10;99.90
20590;DHT22;10453;50.810;12.540;2023-08-21T15:59:37;29.90;99.90
20590;DHT22;10453;50.810;12.540;2023-08-21T16:03:55;29.40;99.90
20590;DHT22;10453;50.810;12.540;2023-08-21T16:08:13;29.10;99.90
20590;DHT22;10453;50.810;12.540;2023-08-21T16:12:30;28.90;99.90
20590;DHT22;10453;50.810;12.540;2023-08-21T16:16:47;28.80;99.90
20590;DHT22;10453;50.810;12.540;2023-08-21T16:21:06;28.90;99.90
20590;DHT22;10453;50.810;12.540;2023-08-21T16:25:23;28.90;99.90
20590;DHT22;10453;50.810;12.540;2023-08-21T16:29:41;28.90;99.90
20590;DHT22;10453;50.810;12.540;2023-08-21T16:33:59;28.80;99.90
20590;DHT22;10453;50.810;12.540;2023-08-21T16:38:16;28.70;99.90
20590;DHT22;10453;50.810;12.540;2023-08-21T16:42:33;28.50;99.90
20590;DHT22;10453;50.810;12.540;2023-08-21T16:46:51;28.50;99.90
20590;DHT22;10453;50.810;12.540;2023-08-21T16:51:08;28.30;99.90
20590;DHT22;10453;50.810;12.540;2023-08-21T16:55:25;28.20;99.90
20590;DHT22;10453;50.810;12.540;2023-08-21T16:59:43;28.00;99.90
20590;DHT22;10453;50.810;12.540;2023-08-21T17:04:00;27.90;99.90
20590;DHT22;10453;50.810;12.540;2023-08-21T17:08:18;27.80;99.90
20590;DHT22;10453;50.810;12.540;2023-08-21T17:12:35;27.70;99.90
20590;DHT22;10453;50.810;12.540;2023-08-21T17:16:53;27.70;99.90
20590;DHT22;10453;50.810;12.540;2023-08-21T17:21:10;27.60;99.90
20590;DHT22;10453;50.810;12.540;2023-08-21T17:25:30;27.40;99.90
20590;DHT22;10453;50.810;12.540;2023-08-21T17:29:47;27.30;99.90
20590;DHT22;10453;50.810;12.540;2023-08-21T17:34:05;27.20;99.90
20590;DHT22;10453;50.810;12.540;2023-08-21T17:38:25;27.10;99.90
20590;DHT22;10453;50.810;12.540;2023-08-21T17:42:43;26.80;99.90
20590;DHT22;10453;50.810;12.540;2023-08-21T17:47:00;26.70;99.90
20590;DHT22;10453;50.810;12.540;2023-08-21T17:51:18;26.50;99.90
20590;DHT22;10453;50.810;12.540;2023-08-21T17:55:35;26.20;99.90
20590;DHT22;10453;50.810;12.540;2023-08-21T17:59:53;26.10;99.90
20590;DHT22;10453;50.810;12.540;2023-08-21T18:04:11;26.00;99.90
20590;DHT22;10453;50.810;12.540;2023-08-21T18:08:29;25.80;99.90
20590;DHT22;10453;50.810;12.540;2023-08-21T18:12:46;25.50;99.90
20590;DHT22;10453;50.810;12.540;2023-08-21T18:17:04;25.30;99.90
20590;DHT22;10453;50.810;12.540;2023-08-21T18:21:26;25.20;99.90
20590;DHT22;10453;50.810;12.540;2023-08-21T18:25:44;25.00;99.90
20590;DHT22;10453;50.810;12.540;2023-08-21T18:30:05;24.80;99.90
20590;DHT22;10453;50.810;12.540;2023-08-21T18:34:23;24.60;99.90
20590;DHT22;10453;50.810;12.540;2023-08-21T18:38:42;24.40;99.90
20590;DHT22;10453;50.810;12.540;2023-08-21T18:42:59;24.20;99.90
20590;DHT22;10453;50.810;12.540;2023-08-21T18:47:17;23.90;99.90
20590;DHT22;10453;50.810;12.540;2023-08-21T18:51:34;23.80;99.90
20590;DHT22;10453;50.810;12.540;2023-08-21T18:55:52;23.60;99.90
20590;DHT22;10453;50.810;12.540;2023-08-21T19:00:10;23.40;99.90
20590;DHT22;10453;50.810;12.540;2023-08-21T19:04:30;23.20;99.90
20590;DHT22;10453;50.810;12.540;2023-08-21T19:08:49;23.10;99.90
20590;DHT22;10453;50.810;12.540;2023-08-21T19:13:06;23.00;99.90
20590;DHT22;10453;50.810;12.540;2023-08-21T19:17:26;22.90;99.90
20590;DHT22;10453;50.810;12.540;2023-08-21T19:21:45;22.70;99.90
20590;DHT22;10453;50.810;12.540;2023-08-21T19:26:03;22.60;99.90
20590;DHT22;10453;50.810;12.540;2023-08-21T19:30:20;22.60;99.90
20590;DHT22;10453;50.810;12.540;2023-08-21T19:34:38;22.50;99.90
20590;DHT22;10453;50.810;12.540;2023-08-21T19:38:55;22.50;99.90
20590;DHT22;10453;50.810;12.540;2023-08-21T19:43:14;22.40;99.90
20590;DHT22;10453;50.810;12.540;2023-08-21T19:47:31;22.50;99.90
20590;DHT22;10453;50.810;12.540;2023-08-21T19:51:49;22.40;99.90
20590;DHT22;10453;50.810;12.540;2023-08-21T19:56:07;22.20;99.90
20590;DHT22;10453;50.810;12.540;2023-08-21T20:00:24;22.10;99.90
20590;DHT22;10453;50.810;12.540;2023-08-21T20:04:42;22.00;99.90
20590;DHT22;10453;50.810;12.540;2023-08-21T20:08:59;21.90;99.90
20590;DHT22;10453;50.810;12.540;2023-08-21T20:13:17;21.80;99.90
20590;DHT22;10453;50.810;12.540;2023-08-21T20:17:35;21.80;99.90
20590;DHT22;10453;50.810;12.540;2023-08-21T20:21:52;21.60;99.90
20590;DHT22;10453;50.810;12.540;2023-08-21T20:26:10;21.60;99.90
20590;DHT22;10453;50.810;12.540;2023-08-21T20:30:28;21.60;99.90
20590;DHT22;10453;50.810;12.540;2023-08-21T20:34:47;21.60;99.90
20590;DHT22;10453;50.810;12.540;2023-08-21T20:39:04;21.60;99.90
20590;DHT22;10453;50.810;12.540;2023-08-21T20:43:22;21.50;99.90
20590;DHT22;10453;50.810;12.540;2023-08-21T20:47:41;21.60;99.90
20590;DHT22;10453;50.810;12.540;2023-08-21T20:51:59;21.40;99.90
20590;DHT22;10453;50.810;12.540;2023-08-21T20:56:17;21.50;99.90
20590;DHT22;10453;50.810;12.540;2023-08-21T21:00:37;21.60;99.90
20590;DHT22;10453;50.810;12.540;2023-08-21T21:04:54;21.50;99.90
20590;DHT22;10453;50.810;12.540;2023-08-21T21:09:12;21.60;99.90
20590;DHT22;10453;50.810;12.540;2023-08-21T21:13:29;21.50;99.90
20590;DHT22;10453;50.810;12.540;2023-08-21T21:17:46;21.60;99.90
20590;DHT22;10453;50.810;12.540;2023-08-21T21:22:03;21.60;99.90
20590;DHT22;10453;50.810;12.540;2023-08-21T21:26:21;21.50;99.90
20590;DHT22;10453;50.810;12.540;2023-08-21T21:30:38;21.50;99.90
20590;DHT22;10453;50.810;12.540;2023-08-21T21:34:55;21.40;99.90
20590;DHT22;10453;50.810;12.540;2023-08-21T21:39:13;21.40;99.90
20590;DHT22;10453;50.810;12.540;2023-08-21T21:43:30;21.40;99.90
20590;DHT22;10453;50.810;12.540;2023-08-21T21:47:47;21.30;99.90
20590;DHT22;10453;50.810;12.540;2023-08-21T21:52:04;21.20;99.90
20590;DHT22;10453;50.810;12.540;2023-08-21T21:56:22;21.20;99.90
20590;DHT22;10453;50.810;12.540;2023-08-21T22:00:39;21.20;99.90
20590;DHT22;10453;50.810;12.540;2023-08-21T22:04:57;21.10;99.90
20590;DHT22;10453;50.810;12.540;2023-08-21T22:09:14;21.00;99.90
20590;DHT22;10453;50.810;12.540;2023-08-21T22:13:32;20.70;99.90
20590;DHT22;10453;50.810;12.540;2023-08-21T22:17:50;20.60;99.90
20590;DHT22;10453;50.810;12.540;2023-08-21T22:22:08;20.40;99.90
20590;DHT22;10453;50.810;12.540;2023-08-21T22:26:25;20.20;99.90
20590;DHT22;10453;50.810;12.540;2023-08-21T22:30:43;20.20;99.90
20590;DHT22;10453;50.810;12.540;2023-08-21T22:35:00;20.10;99.90
20590;DHT22;10453;50.810;12.540;2023-08-21T22:39:17;20.00;99.90
20590;DHT22;10453;50.810;12.540;2023-08-21T22:43:35;19.90;99.90
20590;DHT22;10453;50.810;12.540;2023-08-21T22:47:52;19.90;99.90
20590;DHT22;10453;50.810;12.540;2023-08-21T22:52:09;19.80;99.90
20590;DHT22;10453;50.810;12.540;2023-08-21T22:56:26;19.80;99.90
20590;DHT22;10453;50.810;12.540;2023-08-21T23:00:44;19.70;99.90
20590;DHT22;10453;50.810;12.540;2023-08-21T23:05:01;19.70;99.90
20590;DHT22;10453;50.810;12.540;2023-08-21T23:09:19;19.80;99.90
20590;DHT22;10453;50.810;12.540;2023-08-21T23:13:36;19.80;99.90
20590;DHT22;10453;50.810;12.540;2023-08-21T23:17:55;19.80;99.90
20590;DHT22;10453;50.810;12.540;2023-08-21T23:22:12;19.70;99.90
20590;DHT22;10453;50.810;12.540;2023-08-21T23:26:29;19.50;99.90
20590;DHT22;10453;50.810;12.540;2023-08-21T23:30:47;19.40;99.90
20590;DHT22;10453;50.810;12.540;2023-08-21T23:35:04;19.40;99.90
20590;DHT22;10453;50.810;12.540;2023-08-21T23:39:22;19.40;99.90
20590;DHT22;10453;50.810;12.540;2023-08-21T23:43:39;19.40;99.90
20590;DHT22;10453;50.810;12.540;2023-08-21T23:47:58;19.50;99.90
20590;DHT22;10453;50.810;12.540;2023-08-21T23:52:15;19.70;99.90
20590;DHT22;10453;50.810;12.540;2023-08-21T23:56:32;19.60;99.90
